createdAt,value
2022-09-13T00:00:45.130Z,13.48
2022-09-13T00:03:14.113Z,11.80
2022-09-13T00:05:42.379Z,10.23
2022-09-13T00:08:11.851Z,10.32
2022-09-13T00:10:41.200Z,11.30
2022-09-13T00:13:10.877Z,11.27
2022-09-13T00:15:43.955Z,11.80
2022-09-13T00:18:11.845Z,13.43
2022-09-13T00:20:40.617Z,12.27
2022-09-13T00:23:08.737Z,12.35
2022-09-13T00:25:38.357Z,13.70
2022-09-13T00:28:06.837Z,15.60
2022-09-13T00:30:35.501Z,15.65
2022-09-13T00:33:04.636Z,12.18
2022-09-13T00:35:33.369Z,14.55
2022-09-13T00:38:01.842Z,12.32
2022-09-13T00:40:30.443Z,12.60
2022-09-13T00:42:59.929Z,13.57
2022-09-13T00:45:28.063Z,11.35
2022-09-13T00:47:59.623Z,14.30
2022-09-13T00:50:33.160Z,14.82
2022-09-13T00:53:06.537Z,13.50
2022-09-13T00:55:39.149Z,12.00
2022-09-13T00:58:12.195Z,12.77
2022-09-13T01:00:41.133Z,14.15
2022-09-13T01:03:12.567Z,12.40
2022-09-13T01:05:44.859Z,14.35
2022-09-13T01:08:16.133Z,14.50
2022-09-13T01:10:45.740Z,16.05
2022-09-13T01:13:19.441Z,15.55
2022-09-13T01:15:47.843Z,14.05
2022-09-13T01:18:17.173Z,14.38
2022-09-13T01:21:05.577Z,14.63
2022-09-13T01:23:50.969Z,14.20
2022-09-13T01:26:57.595Z,14.85
2022-09-13T01:29:50.040Z,15.20
2022-09-13T01:32:23.504Z,13.98
2022-09-13T01:35:01.934Z,13.68
2022-09-13T01:37:44.900Z,14.48
2022-09-13T01:40:22.126Z,13.00
2022-09-13T01:43:00.952Z,16.58
2022-09-13T01:45:39.796Z,13.65
2022-09-13T01:48:16.374Z,14.10
2022-09-13T01:50:49.094Z,13.23
2022-09-13T01:53:26.722Z,15.40
2022-09-13T01:56:00.019Z,13.77
2022-09-13T01:58:31.921Z,13.75
2022-09-13T02:01:08.316Z,12.82
2022-09-13T02:03:41.430Z,14.48
2022-09-13T02:06:13.974Z,13.55
2022-09-13T02:08:44.286Z,11.27
2022-09-13T02:11:14.153Z,15.07
2022-09-13T02:13:47.556Z,16.25
2022-09-13T02:16:21.444Z,14.90
2022-09-13T02:18:56.632Z,13.52
2022-09-13T02:21:28.777Z,12.80
2022-09-13T02:24:01.724Z,13.52
2022-09-13T02:26:31.335Z,12.68
2022-09-13T02:29:02.391Z,12.80
2022-09-13T02:31:35.277Z,14.65
2022-09-13T02:34:08.668Z,14.70
2022-09-13T02:36:40.566Z,14.45
2022-09-13T02:39:13.708Z,13.25
2022-09-13T02:41:48.297Z,12.55
2022-09-13T02:44:20.703Z,13.82
2022-09-13T02:47:01.090Z,12.50
2022-09-13T02:49:37.670Z,14.18
2022-09-13T02:52:12.675Z,14.25
2022-09-13T02:54:45.319Z,13.45
2022-09-13T02:57:19.613Z,15.05
2022-09-13T02:59:48.070Z,16.75
2022-09-13T03:02:18.716Z,12.85
2022-09-13T03:04:50.598Z,13.20
2022-09-13T03:07:18.553Z,14.15
2022-09-13T03:09:49.964Z,12.38
2022-09-13T03:12:54.567Z,15.18
2022-09-13T03:15:29.463Z,14.32
2022-09-13T03:18:12.614Z,13.43
2022-09-13T03:20:53.296Z,14.45
2022-09-13T03:23:45.601Z,16.55
2022-09-13T03:26:28.697Z,15.38
2022-09-13T03:29:08.051Z,14.57
2022-09-13T03:31:44.989Z,13.20
2022-09-13T03:34:20.455Z,11.82
2022-09-13T03:36:56.336Z,15.30
2022-09-13T03:39:34.903Z,11.43
2022-09-13T03:42:09.315Z,14.73
2022-09-13T03:44:39.252Z,15.68
2022-09-13T03:47:08.910Z,13.48
2022-09-13T03:49:40.280Z,11.27
2022-09-13T03:52:09.557Z,14.07
2022-09-13T03:54:39.203Z,14.95
2022-09-13T03:57:12.069Z,11.95
2022-09-13T03:59:43.517Z,12.32
2022-09-13T04:02:12.525Z,14.32
2022-09-13T04:04:42.558Z,13.50
2022-09-13T04:07:14.632Z,13.57
2022-09-13T04:09:42.562Z,14.73
2022-09-13T04:12:10.986Z,13.63
2022-09-13T04:14:39.233Z,13.02
2022-09-13T04:17:07.720Z,15.20
2022-09-13T04:19:35.656Z,16.02
2022-09-13T04:22:04.342Z,13.65
2022-09-13T04:24:33.980Z,15.98
2022-09-13T04:27:02.747Z,13.15
2022-09-13T04:29:31.709Z,13.48
2022-09-13T04:32:00.262Z,15.13
2022-09-13T04:34:28.405Z,13.15
2022-09-13T04:36:56.312Z,14.20
2022-09-13T04:39:24.562Z,16.08
2022-09-13T04:41:54.747Z,17.27
2022-09-13T04:44:24.308Z,13.02
2022-09-13T04:46:52.780Z,14.23
2022-09-13T04:49:21.847Z,14.20
2022-09-13T04:51:50.656Z,12.55
2022-09-13T04:54:18.929Z,13.57
2022-09-13T04:56:47.412Z,17.35
2022-09-13T04:59:17.376Z,13.82
2022-09-13T05:01:45.488Z,12.40
2022-09-13T05:04:13.736Z,15.70
2022-09-13T05:06:41.869Z,13.35
2022-09-13T05:09:14.422Z,12.80
2022-09-13T05:11:43.115Z,16.30
2022-09-13T05:14:12.325Z,12.07
2022-09-13T05:16:41.573Z,14.43
2022-09-13T05:19:10.425Z,14.02
2022-09-13T05:21:38.768Z,12.32
2022-09-13T05:24:07.130Z,12.73
2022-09-13T05:26:35.044Z,14.95
2022-09-13T05:29:02.982Z,12.35
2022-09-13T05:31:33.350Z,14.27
2022-09-13T05:34:05.067Z,12.32
2022-09-13T05:36:33.435Z,13.85
2022-09-13T05:39:28.488Z,16.00
2022-09-13T05:41:49.505Z,11.55
2022-09-13T05:44:17.576Z,11.02
2022-09-13T05:46:48.628Z,14.75
2022-09-13T05:49:18.252Z,13.98
2022-09-13T05:51:46.337Z,14.63
2022-09-13T05:54:14.730Z,12.02
2022-09-13T05:56:42.660Z,12.20
2022-09-13T05:59:13.817Z,14.77
2022-09-13T06:01:42.502Z,12.32
2022-09-13T06:04:12.441Z,12.77
2022-09-13T06:06:42.025Z,11.48
2022-09-13T06:09:12.843Z,12.50
2022-09-13T06:11:40.830Z,12.98
2022-09-13T06:14:09.114Z,10.27
2022-09-13T06:16:37.856Z,9.80
2022-09-13T06:19:06.001Z,11.35
2022-09-13T06:21:34.057Z,11.40
2022-09-13T06:24:03.888Z,11.27
2022-09-13T06:26:31.834Z,12.52
2022-09-13T06:29:00.285Z,12.90
2022-09-13T06:31:29.661Z,12.55
2022-09-13T06:34:00.589Z,11.52
2022-09-13T06:36:29.175Z,11.50
2022-09-13T06:39:00.357Z,11.27
2022-09-13T06:41:29.670Z,10.38
2022-09-13T06:44:00.023Z,12.98
2022-09-13T06:46:29.802Z,14.52
2022-09-13T06:49:00.943Z,12.52
2022-09-13T06:51:30.070Z,10.75
2022-09-13T06:53:58.234Z,10.27
2022-09-13T06:56:27.363Z,12.35
2022-09-13T06:58:59.744Z,10.75
2022-09-13T07:01:30.476Z,11.73
2022-09-13T07:04:01.161Z,13.65
2022-09-13T07:06:31.316Z,14.68
2022-09-13T07:09:01.331Z,12.90
2022-09-13T07:11:32.248Z,13.90
2022-09-13T07:14:01.911Z,12.68
2022-09-13T07:16:31.420Z,13.52
2022-09-13T07:19:01.156Z,18.98
2022-09-13T07:21:30.145Z,14.00
2022-09-13T07:23:58.250Z,14.20
2022-09-13T07:26:27.874Z,15.55
2022-09-13T07:28:57.635Z,18.48
2022-09-13T07:31:28.702Z,15.18
2022-09-13T07:33:58.836Z,12.50
2022-09-13T07:36:28.412Z,12.93
2022-09-13T07:38:56.752Z,13.05
2022-09-13T07:41:25.960Z,15.65
2022-09-13T07:43:54.326Z,18.35
2022-09-13T07:46:23.758Z,15.32
2022-09-13T07:48:54.592Z,13.25
2022-09-13T07:51:24.497Z,15.95
2022-09-13T07:53:57.573Z,15.15
2022-09-13T07:56:27.274Z,13.60
2022-09-13T07:58:55.957Z,12.77
2022-09-13T08:01:26.229Z,12.57
2022-09-13T08:03:57.146Z,13.75
2022-09-13T08:06:27.271Z,14.73
2022-09-13T08:08:55.338Z,11.30
2022-09-13T08:11:25.291Z,14.30
2022-09-13T08:13:54.055Z,14.55
2022-09-13T08:16:24.344Z,12.63
2022-09-13T08:18:56.538Z,12.40
2022-09-13T08:21:25.434Z,12.45
2022-09-13T08:23:56.304Z,12.77
2022-09-13T08:26:24.212Z,11.77
2022-09-13T08:28:57.102Z,17.70
2022-09-13T08:31:25.672Z,13.13
2022-09-13T08:33:54.184Z,14.05
2022-09-13T08:36:24.665Z,14.52
2022-09-13T08:38:54.226Z,13.70
2022-09-13T08:41:47.790Z,12.93
2022-09-13T08:44:25.728Z,19.63
2022-09-13T08:47:00.401Z,11.68
2022-09-13T08:49:32.634Z,13.32
2022-09-13T08:52:13.089Z,12.82
2022-09-13T08:54:41.014Z,15.55
2022-09-13T08:57:16.654Z,14.77
2022-09-13T08:59:54.334Z,17.30
2022-09-13T09:02:42.754Z,13.35
2022-09-13T09:05:18.197Z,13.35
2022-09-13T09:07:52.033Z,13.98
2022-09-13T09:10:25.813Z,10.43
2022-09-13T09:12:59.730Z,11.48
2022-09-13T09:15:34.679Z,11.57
2022-09-13T09:18:08.464Z,9.82
2022-09-13T09:20:40.789Z,10.65
2022-09-13T09:23:21.418Z,10.05
2022-09-13T09:25:53.113Z,14.00
2022-09-13T09:28:21.111Z,14.48
2022-09-13T09:30:59.802Z,12.80
2022-09-13T09:33:45.520Z,12.25
2022-09-13T09:36:22.289Z,12.05
2022-09-13T09:38:52.348Z,10.98
2022-09-13T09:41:27.861Z,10.57
2022-09-13T09:44:02.905Z,20.15
2022-09-13T09:46:34.346Z,11.23
2022-09-13T09:49:28.614Z,14.80
2022-09-13T09:51:57.441Z,13.05
2022-09-13T09:54:30.214Z,12.63
2022-09-13T09:56:58.133Z,13.63
2022-09-13T09:59:28.552Z,12.45
2022-09-13T10:01:58.008Z,15.23
2022-09-13T10:04:26.654Z,14.00
2022-09-13T10:07:15.639Z,12.45
2022-09-13T10:09:58.467Z,16.38
2022-09-13T10:12:32.396Z,11.63
2022-09-13T10:15:07.735Z,12.75
2022-09-13T10:17:35.662Z,14.00
2022-09-13T10:20:20.032Z,14.23
2022-09-13T10:23:12.044Z,14.25
2022-09-13T10:25:47.732Z,18.73
2022-09-13T10:28:20.139Z,11.13
2022-09-13T10:30:51.151Z,10.93
2022-09-13T10:33:26.853Z,15.43
2022-09-13T10:35:57.488Z,14.68
2022-09-13T10:38:30.851Z,12.18
2022-09-13T10:41:02.313Z,13.68
2022-09-13T10:43:32.117Z,13.65
2022-09-13T10:46:03.631Z,13.40
2022-09-13T10:48:44.885Z,14.30
2022-09-13T10:51:30.254Z,16.15
2022-09-13T10:54:11.328Z,13.98
2022-09-13T10:56:40.818Z,14.00
2022-09-13T10:59:22.269Z,14.27
2022-09-13T11:02:27.366Z,15.02
2022-09-13T11:05:08.592Z,12.98
2022-09-13T11:08:02.390Z,13.30
2022-09-13T11:10:36.270Z,15.80
2022-09-13T11:13:13.498Z,13.63
2022-09-13T11:15:52.063Z,14.40
2022-09-13T11:18:29.043Z,13.35
2022-09-13T11:21:06.478Z,14.20
2022-09-13T11:23:53.140Z,14.30
2022-09-13T11:26:38.292Z,12.43
2022-09-13T11:29:22.016Z,15.45
2022-09-13T11:32:03.693Z,15.55
2022-09-13T11:34:42.736Z,16.85
2022-09-13T11:37:33.962Z,14.20
2022-09-13T11:40:23.617Z,12.52
2022-09-13T11:43:03.261Z,15.57
2022-09-13T11:45:39.890Z,15.02
2022-09-13T11:48:31.494Z,12.75
2022-09-13T11:51:06.126Z,16.80
2022-09-13T11:53:55.618Z,12.75
2022-09-13T11:56:27.298Z,12.55
2022-09-13T11:59:01.284Z,11.13
2022-09-13T12:01:39.377Z,10.70
2022-09-13T12:04:14.584Z,16.35
2022-09-13T12:06:46.284Z,11.60
2022-09-13T12:09:20.654Z,15.30
2022-09-13T12:11:53.400Z,14.48
2022-09-13T12:14:24.636Z,14.13
2022-09-13T12:16:59.137Z,12.45
2022-09-13T12:19:30.521Z,10.40
2022-09-13T12:22:01.597Z,10.50
2022-09-13T12:24:37.365Z,14.85
2022-09-13T12:27:10.822Z,12.63
2022-09-13T12:29:45.662Z,12.43
2022-09-13T12:32:16.490Z,12.27
2022-09-13T12:34:50.474Z,12.95
2022-09-13T12:37:51.475Z,9.80
2022-09-13T12:40:45.412Z,11.07
2022-09-13T12:43:41.393Z,12.93
2022-09-13T12:46:33.767Z,15.02
2022-09-13T12:49:36.167Z,13.25
2022-09-13T12:52:28.942Z,10.35
2022-09-13T12:55:46.601Z,11.43
2022-09-13T12:58:36.381Z,11.50
2022-09-13T13:01:11.700Z,13.68
2022-09-13T13:03:51.061Z,10.80
2022-09-13T13:06:28.235Z,9.27
2022-09-13T13:08:58.979Z,11.85
2022-09-13T13:11:29.310Z,11.95
2022-09-13T13:13:59.298Z,11.32
2022-09-13T13:16:30.074Z,12.32
2022-09-13T13:19:00.393Z,14.50
2022-09-13T13:21:36.642Z,13.60
2022-09-13T13:24:37.993Z,10.50
2022-09-13T13:27:39.639Z,10.85
2022-09-13T13:30:41.656Z,10.55
2022-09-13T13:33:17.866Z,10.00
2022-09-13T13:35:46.209Z,8.85
2022-09-13T13:38:49.252Z,11.55
2022-09-13T13:41:40.472Z,14.02
2022-09-13T13:44:48.102Z,14.60
2022-09-13T13:48:02.658Z,7.78
2022-09-13T13:50:30.790Z,9.70
2022-09-13T13:53:06.138Z,11.73
2022-09-13T13:55:47.764Z,10.93
2022-09-13T13:58:32.774Z,10.90
2022-09-13T14:01:03.265Z,11.73
2022-09-13T14:03:51.178Z,11.35
2022-09-13T14:06:28.269Z,10.20
2022-09-13T14:09:07.307Z,8.35
2022-09-13T14:11:51.314Z,8.35
2022-09-13T14:14:37.914Z,9.82
2022-09-13T14:17:31.891Z,9.18
2022-09-13T14:20:04.251Z,10.13
2022-09-13T14:22:32.263Z,9.07
2022-09-13T14:25:15.143Z,11.80
2022-09-13T14:27:45.736Z,8.23
2022-09-13T14:30:21.855Z,7.90
2022-09-13T14:32:51.873Z,9.02
2022-09-13T14:35:27.189Z,8.10
2022-09-13T14:37:55.932Z,8.45
2022-09-13T14:40:26.518Z,10.82
2022-09-13T14:42:57.283Z,9.68
2022-09-13T14:45:30.970Z,9.55
2022-09-13T14:48:04.295Z,8.57
2022-09-13T14:50:35.793Z,10.65
2022-09-13T14:53:06.214Z,9.40
2022-09-13T14:55:37.713Z,13.55
2022-09-13T14:58:14.094Z,9.63
2022-09-13T15:00:50.198Z,10.07
2022-09-13T15:03:20.009Z,9.10
2022-09-13T15:05:53.932Z,7.80
2022-09-13T15:08:44.895Z,10.88
2022-09-13T15:11:17.030Z,12.27
2022-09-13T15:13:46.423Z,9.05
2022-09-13T15:16:27.406Z,12.68
2022-09-13T15:19:16.813Z,9.18
2022-09-13T15:21:45.821Z,8.50
2022-09-13T15:24:24.087Z,9.40
2022-09-13T15:27:03.306Z,9.88
2022-09-13T15:29:34.848Z,10.15
2022-09-13T15:32:03.474Z,10.27
2022-09-13T15:34:31.565Z,11.68
2022-09-13T15:37:13.643Z,9.20
2022-09-13T15:39:48.471Z,11.40
2022-09-13T15:42:17.390Z,11.18
2022-09-13T15:44:46.670Z,11.25
2022-09-13T15:47:19.536Z,12.13
2022-09-13T15:49:51.692Z,9.45
2022-09-13T15:52:20.011Z,10.52
2022-09-13T15:54:50.164Z,9.60
2022-09-13T15:57:21.832Z,9.38
2022-09-13T15:59:51.586Z,10.27
2022-09-13T16:02:22.527Z,9.10
2022-09-13T16:04:51.442Z,10.13
2022-09-13T16:07:20.074Z,10.18
2022-09-13T16:09:49.708Z,10.85
2022-09-13T16:12:18.863Z,9.98
2022-09-13T16:14:47.621Z,10.60
2022-09-13T16:17:21.706Z,9.02
2022-09-13T16:19:49.917Z,11.30
2022-09-13T16:22:18.257Z,11.10
2022-09-13T16:24:46.380Z,10.55
2022-09-13T16:27:16.632Z,11.68
2022-09-13T16:29:45.228Z,10.73
2022-09-13T16:32:13.291Z,8.73
2022-09-13T16:34:42.592Z,9.30
2022-09-13T16:37:14.351Z,9.40
2022-09-13T16:39:42.443Z,9.80
2022-09-13T16:42:10.681Z,8.82
2022-09-13T16:44:38.790Z,10.50
2022-09-13T16:47:06.947Z,10.20
2022-09-13T16:49:34.861Z,11.80
2022-09-13T16:52:04.335Z,11.63
2022-09-13T16:54:35.019Z,12.20
2022-09-13T16:57:03.717Z,12.55
2022-09-13T16:59:32.284Z,13.30
2022-09-13T17:02:01.255Z,16.27
2022-09-13T17:04:29.245Z,14.05
2022-09-13T17:06:57.558Z,10.32
2022-09-13T17:09:27.588Z,10.30
2022-09-13T17:11:55.684Z,11.23
2022-09-13T17:14:23.661Z,10.88
2022-09-13T17:16:54.025Z,12.95
2022-09-13T17:19:24.404Z,11.57
2022-09-13T17:21:57.259Z,10.95
2022-09-13T17:24:27.713Z,11.43
2022-09-13T17:26:57.416Z,10.18
2022-09-13T17:29:30.729Z,11.88
2022-09-13T17:31:58.866Z,12.25
2022-09-13T17:34:28.052Z,12.23
2022-09-13T17:36:57.045Z,12.93
2022-09-13T17:39:26.376Z,12.73
2022-09-13T17:41:54.682Z,11.57
2022-09-13T17:44:22.662Z,12.30
2022-09-13T17:46:50.720Z,14.68
2022-09-13T17:49:18.685Z,14.45
2022-09-13T17:51:46.923Z,11.75
2022-09-13T17:54:15.125Z,14.77
2022-09-13T17:56:45.956Z,11.55
2022-09-13T17:59:16.348Z,13.52
2022-09-13T18:01:45.787Z,12.55
2022-09-13T18:04:15.775Z,13.10
2022-09-13T18:06:44.350Z,12.93
2022-09-13T18:09:13.848Z,12.02
2022-09-13T18:11:43.974Z,14.70
2022-09-13T18:14:14.134Z,14.35
2022-09-13T18:16:42.834Z,12.85
2022-09-13T18:19:11.535Z,14.90
2022-09-13T18:21:39.781Z,11.57
2022-09-13T18:24:08.280Z,16.35
2022-09-13T18:26:36.693Z,13.52
2022-09-13T18:29:08.370Z,13.60
2022-09-13T18:31:37.076Z,13.90
2022-09-13T18:34:07.004Z,15.82
2022-09-13T18:36:36.060Z,13.02
2022-09-13T18:39:05.677Z,15.55
2022-09-13T18:41:35.481Z,13.13
2022-09-13T18:44:05.825Z,15.40
2022-09-13T18:46:35.194Z,15.02
2022-09-13T18:49:03.685Z,13.40
2022-09-13T18:51:33.390Z,17.30
2022-09-13T18:54:02.176Z,17.40
2022-09-13T18:56:30.754Z,15.95
2022-09-13T18:59:01.207Z,15.52
2022-09-13T19:01:32.596Z,13.73
2022-09-13T19:04:03.442Z,19.95
2022-09-13T19:06:33.310Z,16.92
2022-09-13T19:09:02.232Z,15.05
2022-09-13T19:11:49.658Z,15.38
2022-09-13T19:14:30.720Z,14.35
2022-09-13T19:17:02.930Z,14.35
2022-09-13T19:19:31.884Z,17.35
2022-09-13T19:21:59.809Z,18.08
2022-09-13T19:24:28.336Z,18.40
2022-09-13T19:26:57.278Z,15.32
2022-09-13T19:29:25.932Z,14.98
2022-09-13T19:31:55.771Z,15.45
2022-09-13T19:34:27.065Z,14.27
2022-09-13T19:36:57.972Z,14.93
2022-09-13T19:39:29.529Z,14.60
2022-09-13T19:41:59.570Z,13.27
2022-09-13T19:44:27.676Z,14.85
2022-09-13T19:47:23.787Z,15.30
2022-09-13T19:49:45.399Z,13.65
2022-09-13T19:52:14.260Z,16.58
2022-09-13T19:54:43.228Z,19.08
2022-09-13T19:57:11.389Z,18.55
2022-09-13T19:59:40.348Z,16.48
2022-09-13T20:02:10.707Z,15.60
2022-09-13T20:04:38.699Z,16.83
2022-09-13T20:07:12.280Z,17.45
2022-09-13T20:09:42.161Z,18.83
2022-09-13T20:12:12.523Z,18.65
2022-09-13T20:14:48.032Z,18.00
2022-09-13T20:17:16.249Z,16.40
2022-09-13T20:19:49.290Z,16.77
2022-09-13T20:22:19.636Z,15.55
2022-09-13T20:24:48.628Z,15.43
2022-09-13T20:27:16.960Z,20.67
2022-09-13T20:29:44.891Z,16.00
2022-09-13T20:32:12.785Z,16.90
2022-09-13T20:34:41.154Z,15.35
2022-09-13T20:37:09.057Z,16.38
2022-09-13T20:39:38.694Z,15.57
2022-09-13T20:42:06.822Z,16.08
2022-09-13T20:44:35.929Z,14.63
2022-09-13T20:47:04.491Z,14.90
2022-09-13T20:49:32.641Z,16.10
2022-09-13T20:52:00.984Z,16.80
2022-09-13T20:54:30.585Z,16.67
2022-09-13T20:56:59.972Z,18.83
2022-09-13T20:59:28.357Z,17.75
2022-09-13T21:01:56.788Z,15.27
2022-09-13T21:04:24.838Z,16.17
2022-09-13T21:07:14.439Z,17.98
2022-09-13T21:09:43.329Z,20.05
2022-09-13T21:12:15.360Z,17.73
2022-09-13T21:14:43.277Z,18.23
2022-09-13T21:17:11.532Z,16.33
2022-09-13T21:19:39.527Z,13.90
2022-09-13T21:22:08.004Z,13.98
2022-09-13T21:24:35.930Z,18.27
2022-09-13T21:27:03.912Z,16.75
2022-09-13T21:29:33.172Z,19.13
2022-09-13T21:32:01.421Z,17.17
2022-09-13T21:34:29.605Z,21.23
2022-09-13T21:36:57.839Z,18.10
2022-09-13T21:39:25.962Z,20.25
2022-09-13T21:41:54.295Z,17.88
2022-09-13T21:44:22.297Z,17.65
2022-09-13T21:46:52.412Z,17.88
2022-09-13T21:49:20.525Z,21.92
2022-09-13T21:51:50.128Z,23.40
2022-09-13T21:54:20.766Z,18.85
2022-09-13T21:56:51.502Z,19.77
2022-09-13T21:59:21.156Z,22.35
2022-09-13T22:01:52.736Z,19.92
2022-09-13T22:04:22.761Z,17.55
2022-09-13T22:06:53.466Z,20.80
2022-09-13T22:09:22.944Z,21.33
2022-09-13T22:11:50.987Z,19.48
2022-09-13T22:14:21.863Z,21.35
2022-09-13T22:16:50.753Z,21.67
2022-09-13T22:19:21.966Z,20.13
2022-09-13T22:21:51.922Z,18.48
2022-09-13T22:24:22.241Z,19.98
2022-09-13T22:26:52.294Z,20.02
2022-09-13T22:29:21.358Z,22.50
2022-09-13T22:31:52.034Z,20.30
2022-09-13T22:34:25.275Z,19.38
2022-09-13T22:36:54.668Z,19.95
2022-09-13T22:39:22.607Z,22.40
2022-09-13T22:41:50.536Z,21.25
2022-09-13T22:44:18.438Z,20.27
2022-09-13T22:46:47.391Z,19.20
2022-09-13T22:49:18.121Z,23.13
2022-09-13T22:51:48.747Z,21.35
2022-09-13T22:54:18.273Z,22.65
2022-09-13T22:56:46.403Z,21.80
2022-09-13T22:59:16.444Z,22.20
2022-09-13T23:01:45.057Z,27.30
2022-09-13T23:04:13.756Z,22.13
2022-09-13T23:06:43.701Z,23.33
2022-09-13T23:09:14.776Z,22.20
2022-09-13T23:11:42.872Z,20.10
2022-09-13T23:14:12.428Z,18.98
2022-09-13T23:16:42.277Z,21.10
2022-09-13T23:19:12.535Z,20.35
2022-09-13T23:21:41.536Z,20.20
2022-09-13T23:24:14.875Z,19.52
2022-09-13T23:26:43.417Z,21.65
2022-09-13T23:29:14.886Z,22.33
2022-09-13T23:31:43.922Z,24.35
2022-09-13T23:34:12.768Z,22.92
2022-09-13T23:36:43.178Z,27.45
2022-09-13T23:39:16.341Z,20.15
2022-09-13T23:41:45.108Z,20.75
2022-09-13T23:44:13.248Z,21.70
2022-09-13T23:46:41.660Z,18.30
2022-09-13T23:49:09.642Z,20.08
2022-09-13T23:51:37.616Z,22.70
2022-09-13T23:54:06.276Z,19.05
2022-09-13T23:56:36.318Z,20.95
2022-09-13T23:59:05.152Z,21.17
